createdAt,value
2019-06-10T00:02:05.817Z,101226.52
2019-06-10T00:04:36.494Z,101219.23
2019-06-10T00:07:07.369Z,101216.87
2019-06-10T00:09:40.732Z,101217.64
2019-06-10T00:12:12.771Z,101218.59
2019-06-10T00:14:43.101Z,101207.76
2019-06-10T00:17:13.410Z,101204.30
2019-06-10T00:19:43.615Z,101204.70
2019-06-10T00:22:13.930Z,101197.73
2019-06-10T00:24:44.176Z,101199.30
2019-06-10T00:27:14.479Z,101197.09
2019-06-10T00:29:44.702Z,101190.45
2019-06-10T00:32:14.985Z,101185.09
2019-06-10T00:34:45.257Z,101175.00
2019-06-10T00:37:15.474Z,101168.28
2019-06-10T00:39:45.656Z,101164.25
2019-06-10T00:42:15.915Z,101160.68
2019-06-10T00:44:46.143Z,101156.84
2019-06-10T00:47:16.429Z,101152.33
2019-06-10T00:49:46.659Z,101146.72
2019-06-10T00:52:16.898Z,101147.28
2019-06-10T00:54:47.071Z,101140.64
2019-06-10T00:57:20.761Z,101141.19
2019-06-10T00:59:50.849Z,101142.20
2019-06-10T01:02:21.521Z,101136.51
2019-06-10T01:04:51.750Z,101138.05
2019-06-10T01:07:22.372Z,101143.47
2019-06-10T01:09:52.901Z,101138.91
2019-06-10T01:12:23.168Z,101135.03
2019-06-10T01:14:53.667Z,101134.30
2019-06-10T01:17:23.933Z,101122.84
2019-06-10T01:19:54.111Z,101127.88
2019-06-10T01:22:24.846Z,101125.07
2019-06-10T01:24:57.193Z,101117.70
2019-06-10T01:27:27.467Z,101117.87
2019-06-10T01:29:57.663Z,101120.55
2019-06-10T01:32:27.894Z,101115.91
2019-06-10T01:34:58.237Z,101116.53
2019-06-10T01:37:30.953Z,101109.73
2019-06-10T01:40:00.882Z,101107.58
2019-06-10T01:42:31.205Z,101104.84
2019-06-10T01:45:01.440Z,101109.16
2019-06-10T01:47:32.971Z,101102.62
2019-06-10T01:50:03.259Z,101099.53
2019-06-10T01:52:33.567Z,101098.75
2019-06-10T01:55:04.098Z,101095.17
2019-06-10T01:57:34.447Z,101090.21
2019-06-10T02:00:12.004Z,101095.58
2019-06-10T02:02:37.485Z,101087.13
2019-06-10T02:05:08.582Z,101078.30
2019-06-10T02:07:40.948Z,101079.23
2019-06-10T02:10:14.111Z,101071.79
2019-06-10T02:12:45.635Z,101063.81
2019-06-10T02:15:16.720Z,101073.61
2019-06-10T02:17:47.478Z,101073.29
2019-06-10T02:20:18.463Z,101068.16
2019-06-10T02:22:51.584Z,101065.64
2019-06-10T02:25:22.985Z,101060.27
2019-06-10T02:27:53.373Z,101058.56
2019-06-10T02:30:39.055Z,101052.71
2019-06-10T02:32:55.455Z,101050.39
2019-06-10T02:35:38.077Z,101054.26
2019-06-10T02:37:57.562Z,101040.10
2019-06-10T02:40:32.071Z,101040.75
2019-06-10T02:43:03.315Z,101034.58
2019-06-10T02:45:36.978Z,101029.91
2019-06-10T02:48:04.361Z,101019.08
2019-06-10T02:50:57.439Z,101022.78
2019-06-10T02:53:31.240Z,101023.18
2019-06-10T02:55:59.549Z,101020.98
2019-06-10T02:58:37.271Z,101017.16
2019-06-10T03:01:04.325Z,101017.56
2019-06-10T03:03:42.654Z,101011.27
2019-06-10T03:06:08.719Z,101000.69
2019-06-10T03:08:43.650Z,101015.56
2019-06-10T03:11:14.121Z,101015.81
2019-06-10T03:13:44.609Z,101018.30
2019-06-10T03:16:33.058Z,101013.38
2019-06-10T03:19:04.580Z,101011.77
2019-06-10T03:21:34.955Z,101009.92
2019-06-10T03:24:05.385Z,101003.30
2019-06-10T03:26:35.579Z,101004.81
2019-06-10T03:29:05.802Z,101002.33
2019-06-10T03:31:41.841Z,100997.17
2019-06-10T03:34:08.274Z,100995.88
2019-06-10T03:36:38.494Z,100993.42
2019-06-10T03:39:09.431Z,100991.92
2019-06-10T03:41:39.656Z,100985.70
2019-06-10T03:44:09.902Z,100984.41
2019-06-10T03:46:40.120Z,100986.41
2019-06-10T03:49:12.566Z,100986.64
2019-06-10T03:51:42.938Z,100983.59
2019-06-10T03:54:13.362Z,100984.98
2019-06-10T03:56:44.504Z,100982.79
2019-06-10T03:59:14.697Z,100986.36
2019-06-10T04:01:44.865Z,100984.53
2019-06-10T04:04:15.200Z,100974.74
2019-06-10T04:06:48.148Z,100971.20
2019-06-10T04:09:19.472Z,100959.42
2019-06-10T04:11:49.726Z,100941.99
2019-06-10T04:14:22.045Z,100938.77
2019-06-10T04:16:52.504Z,100941.83
2019-06-10T04:19:25.385Z,100941.98
2019-06-10T04:21:54.876Z,100940.44
2019-06-10T04:24:25.766Z,100944.47
2019-06-10T04:26:57.126Z,100944.12
2019-06-10T04:29:28.926Z,100944.30
2019-06-10T04:31:59.242Z,100952.42
2019-06-10T04:34:31.012Z,100955.27
2019-06-10T04:37:03.091Z,100957.01
2019-06-10T04:39:33.886Z,100955.17
2019-06-10T04:42:04.102Z,100956.94
2019-06-10T04:44:34.387Z,100957.42
2019-06-10T04:47:04.592Z,100957.09
2019-06-10T04:49:34.786Z,100950.00
2019-06-10T04:52:05.004Z,100938.52
2019-06-10T04:54:35.355Z,100935.98
2019-06-10T04:57:05.587Z,100941.26
2019-06-10T04:59:36.118Z,100934.14
2019-06-10T05:02:06.385Z,100927.52
2019-06-10T05:04:36.717Z,100926.13
2019-06-10T05:07:06.959Z,100930.29
2019-06-10T05:09:37.665Z,100929.21
2019-06-10T05:12:12.130Z,100920.20
2019-06-10T05:14:43.270Z,100929.27
2019-06-10T05:17:13.761Z,100931.28
2019-06-10T05:19:44.405Z,100932.63
2019-06-10T05:22:14.626Z,100934.09
2019-06-10T05:24:44.859Z,100928.45
2019-06-10T05:27:15.082Z,100929.27
2019-06-10T05:29:45.290Z,100917.00
2019-06-10T05:32:15.420Z,100921.84
2019-06-10T05:34:45.645Z,100913.51
2019-06-10T05:37:15.894Z,100915.15
2019-06-10T05:39:46.177Z,100904.47
2019-06-10T05:42:16.351Z,100898.85
2019-06-10T05:44:48.158Z,100894.81
2019-06-10T05:47:19.489Z,100893.25
2019-06-10T05:49:49.633Z,100896.62
2019-06-10T05:52:19.805Z,100901.91
2019-06-10T05:54:51.981Z,100903.80
2019-06-10T05:57:23.906Z,100904.93
2019-06-10T06:00:10.724Z,100900.86
2019-06-10T06:02:37.743Z,100898.95
2019-06-10T06:05:08.651Z,100897.38
2019-06-10T06:07:38.812Z,100904.27
2019-06-10T06:10:09.670Z,100915.84
2019-06-10T06:12:42.453Z,100917.80
2019-06-10T06:15:12.995Z,100917.06
2019-06-10T06:17:43.447Z,100918.81
2019-06-10T06:20:15.072Z,100922.86
2019-06-10T06:22:45.350Z,100919.63
2019-06-10T06:25:16.896Z,100913.48
2019-06-10T06:27:47.292Z,100908.66
2019-06-10T06:30:23.930Z,100913.80
2019-06-10T06:32:54.211Z,100903.98
2019-06-10T06:35:24.701Z,100895.34
2019-06-10T06:37:59.262Z,100887.09
2019-06-10T06:40:37.128Z,100872.85
2019-06-10T06:43:05.347Z,100871.90
2019-06-10T06:45:37.463Z,100871.61
2019-06-10T06:48:08.201Z,100878.63
2019-06-10T06:50:59.101Z,100888.12
2019-06-10T06:53:25.637Z,100881.99
2019-06-10T06:55:46.175Z,100883.64
2019-06-10T06:58:23.049Z,100878.40
2019-06-10T07:01:01.864Z,100877.61
2019-06-10T07:03:24.453Z,100876.66
2019-06-10T07:05:55.200Z,100876.47
2019-06-10T07:08:27.958Z,100878.80
2019-06-10T07:11:02.805Z,100875.31
2019-06-10T07:13:39.116Z,100873.41
2019-06-10T07:16:08.626Z,100862.14
2019-06-10T07:18:43.114Z,100861.29
2019-06-10T07:21:13.115Z,100858.20
2019-06-10T07:23:46.863Z,100857.91
2019-06-10T07:26:15.541Z,100860.32
2019-06-10T07:28:47.547Z,100860.32
2019-06-10T07:31:23.972Z,100855.72
2019-06-10T07:33:52.651Z,100853.38
2019-06-10T07:36:27.083Z,100847.48
2019-06-10T07:39:03.346Z,100842.43
2019-06-10T07:41:34.429Z,100841.42
2019-06-10T07:44:06.355Z,100846.98
2019-06-10T07:46:39.356Z,100853.27
2019-06-10T07:49:13.225Z,100854.47
2019-06-10T07:51:46.618Z,100846.68
2019-06-10T07:54:23.026Z,100848.41
2019-06-10T07:56:53.916Z,100849.20
2019-06-10T07:59:24.378Z,100855.66
2019-06-10T08:01:55.377Z,100863.89
2019-06-10T08:04:29.711Z,100860.10
2019-06-10T08:07:03.629Z,100853.05
2019-06-10T08:09:35.651Z,100855.78
2019-06-10T08:12:06.212Z,100855.53
2019-06-10T08:14:37.407Z,100856.38
2019-06-10T08:17:12.811Z,100849.52
2019-06-10T08:19:50.435Z,100845.09
2019-06-10T08:22:29.848Z,100840.95
2019-06-10T08:24:52.362Z,100837.52
2019-06-10T08:27:23.102Z,100833.79
2019-06-10T08:30:13.102Z,100836.86
2019-06-10T08:32:25.686Z,100840.44
2019-06-10T08:34:56.986Z,100842.96
2019-06-10T08:37:27.165Z,100840.16
2019-06-10T08:39:57.364Z,100839.39
2019-06-10T08:42:27.612Z,100839.98
2019-06-10T08:44:59.891Z,100826.20
2019-06-10T08:47:32.462Z,100823.42
2019-06-10T08:50:02.725Z,100822.53
2019-06-10T08:52:51.872Z,100818.33
2019-06-10T08:55:07.347Z,100823.37
2019-06-10T08:57:39.788Z,100820.91
2019-06-10T09:00:14.272Z,100824.88
2019-06-10T09:02:46.828Z,100819.59
2019-06-10T09:05:18.327Z,100821.69
2019-06-10T09:07:51.368Z,100826.03
2019-06-10T09:10:22.715Z,100818.88
2019-06-10T09:12:54.895Z,100814.99
2019-06-10T09:15:25.244Z,100812.28
2019-06-10T09:17:56.291Z,100810.95
2019-06-10T09:20:28.874Z,100812.33
2019-06-10T09:23:15.075Z,100815.46
2019-06-10T09:25:33.366Z,100806.42
2019-06-10T09:28:04.514Z,100801.61
2019-06-10T09:30:35.262Z,100803.03
2019-06-10T09:33:07.281Z,100807.40
2019-06-10T09:35:39.902Z,100804.69
2019-06-10T09:38:14.250Z,100799.21
2019-06-10T09:40:55.471Z,100803.61
2019-06-10T09:43:23.506Z,100801.61
2019-06-10T09:45:56.451Z,100807.34
2019-06-10T09:48:29.212Z,100800.45
2019-06-10T09:51:02.475Z,100803.72
2019-06-10T09:53:42.718Z,100794.06
2019-06-10T09:56:08.051Z,100790.13
2019-06-10T09:58:39.166Z,100781.34
2019-06-10T10:01:16.172Z,100779.63
2019-06-10T10:03:51.416Z,100774.97
2019-06-10T10:06:18.491Z,100765.36
2019-06-10T10:08:52.447Z,100765.61
2019-06-10T10:11:23.759Z,100765.61
2019-06-10T10:13:53.760Z,100762.52
2019-06-10T10:16:23.994Z,100768.06
2019-06-10T10:19:00.312Z,100768.69
2019-06-10T10:21:26.167Z,100771.78
2019-06-10T10:24:06.793Z,100764.35
2019-06-10T10:26:28.980Z,100764.73
2019-06-10T10:28:59.218Z,100754.53
2019-06-10T10:31:29.437Z,100752.29
2019-06-10T10:33:59.605Z,100753.89
2019-06-10T10:36:29.804Z,100752.42
2019-06-10T10:39:02.268Z,100745.00
2019-06-10T10:41:33.619Z,100743.22
2019-06-10T10:44:04.355Z,100741.38
2019-06-10T10:46:34.563Z,100741.73
2019-06-10T10:49:05.331Z,100738.89
2019-06-10T10:51:35.499Z,100734.55
2019-06-10T10:54:32.599Z,100732.06
2019-06-10T10:56:37.923Z,100723.86
2019-06-10T10:59:08.143Z,100720.22
2019-06-10T11:01:43.649Z,100724.48
2019-06-10T11:04:13.302Z,100715.97
2019-06-10T11:06:44.588Z,100718.65
2019-06-10T11:09:17.581Z,100712.19
2019-06-10T11:11:53.167Z,100713.55
2019-06-10T11:14:23.817Z,100710.19
2019-06-10T11:16:56.886Z,100700.55
2019-06-10T11:19:25.897Z,100702.38
2019-06-10T11:21:56.215Z,100702.38
2019-06-10T11:24:36.719Z,100700.44
2019-06-10T11:27:00.132Z,100687.83
2019-06-10T11:29:32.711Z,100684.53
2019-06-10T11:32:03.289Z,100683.41
2019-06-10T11:34:33.463Z,100687.55
2019-06-10T11:37:03.647Z,100692.53
2019-06-10T11:39:36.625Z,100697.00
2019-06-10T11:42:06.812Z,100692.81
2019-06-10T11:44:36.961Z,100695.55
2019-06-10T11:47:07.198Z,100704.78
2019-06-10T11:49:37.348Z,100699.19
2019-06-10T11:52:07.513Z,100694.16
2019-06-10T11:54:53.862Z,100689.98
2019-06-10T11:57:09.793Z,100692.14
2019-06-10T11:59:40.043Z,100688.84
2019-06-10T12:02:10.206Z,100680.97
2019-06-10T12:04:40.384Z,100683.12
2019-06-10T12:07:12.923Z,100683.23
2019-06-10T12:09:43.275Z,100678.09
2019-06-10T12:12:13.597Z,100674.22
2019-06-10T12:14:43.846Z,100679.17
2019-06-10T12:17:40.953Z,100674.95
2019-06-10T12:19:46.568Z,100678.66
2019-06-10T12:22:16.769Z,100671.86
2019-06-10T12:24:47.067Z,100671.45
2019-06-10T12:27:17.304Z,100672.14
2019-06-10T12:29:47.478Z,100665.48
2019-06-10T12:32:17.675Z,100659.48
2019-06-10T12:34:47.844Z,100654.95
2019-06-10T12:37:18.012Z,100657.22
2019-06-10T12:39:48.256Z,100652.08
2019-06-10T12:42:18.623Z,100648.27
2019-06-10T12:44:48.882Z,100640.09
2019-06-10T12:47:19.075Z,100636.97
2019-06-10T12:49:49.242Z,100631.85
2019-06-10T12:52:19.420Z,100634.98
2019-06-10T12:54:50.073Z,100636.30
2019-06-10T12:57:22.844Z,100626.67
2019-06-10T12:59:52.351Z,100627.02
2019-06-10T13:02:29.059Z,100615.06
2019-06-10T13:04:55.540Z,100598.48
2019-06-10T13:07:25.682Z,100591.95
2019-06-10T13:09:57.788Z,100591.09
2019-06-10T13:12:28.208Z,100578.80
2019-06-10T13:14:58.438Z,100577.48
2019-06-10T13:17:28.698Z,100583.77
2019-06-10T13:19:59.217Z,100580.86
2019-06-10T13:22:29.576Z,100587.52
2019-06-10T13:25:00.618Z,100583.73
2019-06-10T13:27:32.007Z,100580.48
2019-06-10T13:30:02.735Z,100583.36
2019-06-10T13:32:34.124Z,100586.51
2019-06-10T13:35:06.389Z,100583.97
2019-06-10T13:37:37.776Z,100577.60
2019-06-10T13:40:10.731Z,100577.06
2019-06-10T13:42:42.203Z,100573.66
2019-06-10T13:45:12.778Z,100563.86
2019-06-10T13:47:43.783Z,100563.80
2019-06-10T13:50:14.690Z,100557.80
2019-06-10T13:52:44.995Z,100560.38
2019-06-10T13:55:15.590Z,100543.89
2019-06-10T13:57:45.772Z,100539.00
2019-06-10T14:00:17.758Z,100538.83
2019-06-10T14:02:47.939Z,100533.38
2019-06-10T14:05:18.659Z,100552.93
2019-06-10T14:07:49.062Z,100544.02
2019-06-10T14:10:19.368Z,100542.11
2019-06-10T14:12:52.742Z,100540.20
2019-06-10T14:15:22.996Z,100529.62
2019-06-10T14:17:54.027Z,100526.28
2019-06-10T14:20:24.456Z,100527.59
2019-06-10T14:22:54.776Z,100522.75
2019-06-10T14:25:26.025Z,100522.87
2019-06-10T14:27:56.453Z,100513.64
2019-06-10T14:30:26.779Z,100510.50
2019-06-10T14:32:57.010Z,100515.31
2019-06-10T14:35:27.477Z,100511.25
2019-06-10T14:37:57.673Z,100512.14
2019-06-10T14:40:27.852Z,100510.12
2019-06-10T14:42:58.167Z,100504.91
2019-06-10T14:45:29.625Z,100508.94
2019-06-10T14:48:02.852Z,100516.34
2019-06-10T14:50:34.564Z,100518.16
2019-06-10T14:53:09.112Z,100521.17
2019-06-10T14:55:39.441Z,100504.25
2019-06-10T14:58:13.132Z,100495.55
2019-06-10T15:00:45.861Z,100497.08
2019-06-10T15:03:20.618Z,100506.62
2019-06-10T15:05:52.960Z,100506.80
2019-06-10T15:08:25.334Z,100516.17
2019-06-10T15:10:55.579Z,100511.24
2019-06-10T15:13:25.848Z,100521.06
2019-06-10T15:15:56.161Z,100530.89
2019-06-10T15:18:26.381Z,100529.25
2019-06-10T15:20:56.761Z,100528.56
2019-06-10T15:23:32.284Z,100533.16
2019-06-10T15:26:03.636Z,100540.69
2019-06-10T15:28:34.885Z,100540.72
2019-06-10T15:31:08.264Z,100537.95
2019-06-10T15:33:38.551Z,100536.83
2019-06-10T15:36:09.092Z,100535.87
2019-06-10T15:38:40.341Z,100526.88
2019-06-10T15:41:15.037Z,100526.11
2019-06-10T15:43:42.954Z,100519.83
2019-06-10T15:46:17.346Z,100512.70
2019-06-10T15:48:49.836Z,100518.22
2019-06-10T15:51:25.127Z,100514.52
2019-06-10T15:53:52.482Z,100510.94
2019-06-10T15:56:36.475Z,100507.42
2019-06-10T15:58:55.563Z,100499.75
2019-06-10T16:01:27.397Z,100489.38
2019-06-10T16:03:58.095Z,100487.48
2019-06-10T16:06:28.335Z,100480.13
2019-06-10T16:08:58.637Z,100489.06
2019-06-10T16:11:33.023Z,100490.69
2019-06-10T16:14:03.048Z,100486.12
2019-06-10T16:16:33.852Z,100487.08
2019-06-10T16:19:05.777Z,100494.73
2019-06-10T16:21:35.953Z,100490.16
2019-06-10T16:24:06.091Z,100487.19
2019-06-10T16:26:36.626Z,100481.88
2019-06-10T16:29:06.795Z,100482.89
2019-06-10T16:31:36.995Z,100482.84
2019-06-10T16:34:07.951Z,100486.88
2019-06-10T16:36:39.754Z,100485.05
2019-06-10T16:39:12.558Z,100486.89
2019-06-10T16:41:48.288Z,100495.14
2019-06-10T16:44:19.852Z,100494.97
2019-06-10T16:46:52.685Z,100500.83
2019-06-10T16:49:23.520Z,100496.82
2019-06-10T16:51:55.370Z,100482.84
2019-06-10T16:54:27.106Z,100479.29
2019-06-10T16:57:03.871Z,100476.01
2019-06-10T16:59:34.269Z,100475.83
2019-06-10T17:02:07.029Z,100474.67
2019-06-10T17:04:37.296Z,100476.11
2019-06-10T17:07:07.595Z,100483.38
2019-06-10T17:09:42.189Z,100480.13
2019-06-10T17:12:12.690Z,100487.80
2019-06-10T17:14:45.909Z,100481.58
2019-06-10T17:17:16.220Z,100479.37
2019-06-10T17:19:46.579Z,100480.59
2019-06-10T17:22:16.877Z,100485.02
2019-06-10T17:24:47.063Z,100481.02
2019-06-10T17:27:17.376Z,100483.52
2019-06-10T17:29:47.644Z,100490.81
2019-06-10T17:32:22.603Z,100489.64
2019-06-10T17:35:02.157Z,100491.81
2019-06-10T17:37:31.289Z,100484.22
2019-06-10T17:40:02.738Z,100489.23
2019-06-10T17:42:38.591Z,100485.75
2019-06-10T17:45:09.412Z,100491.69
2019-06-10T17:47:39.784Z,100493.61
2019-06-10T17:50:12.723Z,100491.95
2019-06-10T17:52:42.758Z,100491.95
2019-06-10T17:55:13.371Z,100492.28
2019-06-10T17:57:47.546Z,100491.55
2019-06-10T18:00:18.509Z,100498.84
2019-06-10T18:02:53.544Z,100492.71
2019-06-10T18:05:27.255Z,100491.88
2019-06-10T18:07:58.650Z,100494.36
2019-06-10T18:10:34.457Z,100494.31
2019-06-10T18:13:13.058Z,100504.71
2019-06-10T18:15:37.997Z,100506.17
2019-06-10T18:18:10.003Z,100503.70
2019-06-10T18:20:43.261Z,100493.50
2019-06-10T18:23:13.472Z,100494.28
2019-06-10T18:25:46.828Z,100496.19
2019-06-10T18:28:26.990Z,100489.55
2019-06-10T18:30:59.670Z,100490.78
2019-06-10T18:33:30.201Z,100490.22
2019-06-10T18:36:00.585Z,100479.98
2019-06-10T18:38:35.171Z,100471.05
2019-06-10T18:41:04.465Z,100468.84
2019-06-10T18:43:40.012Z,100460.11
2019-06-10T18:46:12.666Z,100450.36
2019-06-10T18:48:43.227Z,100447.14
2019-06-10T18:51:13.907Z,100448.83
2019-06-10T18:53:44.597Z,100444.66
2019-06-10T18:56:17.408Z,100451.06
2019-06-10T18:58:47.749Z,100458.92
2019-06-10T19:01:19.961Z,100457.81
2019-06-10T19:03:50.264Z,100468.91
2019-06-10T19:06:22.796Z,100467.83
2019-06-10T19:08:53.029Z,100459.59
2019-06-10T19:11:23.516Z,100461.80
2019-06-10T19:13:54.361Z,100457.53
2019-06-10T19:16:33.518Z,100457.53
2019-06-10T19:19:04.547Z,100456.20
2019-06-10T19:21:36.253Z,100459.31
2019-06-10T19:24:06.831Z,100472.24
2019-06-10T19:26:44.856Z,100462.89
2019-06-10T19:29:29.666Z,100463.53
2019-06-10T19:31:47.876Z,100462.09
2019-06-10T19:34:18.382Z,100472.31
2019-06-10T19:36:48.826Z,100469.48
2019-06-10T19:39:36.424Z,100477.25
2019-06-10T19:42:05.043Z,100482.89
2019-06-10T19:44:43.186Z,100470.87
2019-06-10T19:47:14.479Z,100474.06
2019-06-10T19:49:45.061Z,100484.16
2019-06-10T19:52:16.781Z,100482.06
2019-06-10T19:54:47.132Z,100487.98
2019-06-10T19:57:17.520Z,100483.05
2019-06-10T20:00:06.739Z,100478.88
2019-06-10T20:02:22.508Z,100484.41
2019-06-10T20:04:54.739Z,100483.92
2019-06-10T20:07:25.061Z,100495.98
2019-06-10T20:09:56.825Z,100502.49
2019-06-10T20:12:28.657Z,100506.30
2019-06-10T20:14:58.935Z,100501.14
2019-06-10T20:17:32.790Z,100496.92
2019-06-10T20:20:03.239Z,100495.45
2019-06-10T20:22:33.575Z,100490.54
2019-06-10T20:25:03.923Z,100494.81
2019-06-10T20:27:35.473Z,100493.12
2019-06-10T20:30:23.450Z,100491.39
2019-06-10T20:32:41.575Z,100489.15
2019-06-10T20:35:15.746Z,100492.73
2019-06-10T20:37:47.357Z,100493.08
2019-06-10T20:40:22.306Z,100486.80
2019-06-10T20:42:52.534Z,100488.73
2019-06-10T20:45:23.242Z,100482.61
2019-06-10T20:47:55.198Z,100483.95
2019-06-10T20:50:25.408Z,100479.26
2019-06-10T20:53:10.732Z,100477.53
2019-06-10T20:55:40.446Z,100485.04
2019-06-10T20:58:06.226Z,100481.83
2019-06-10T21:00:37.031Z,100481.81
2019-06-10T21:03:07.434Z,100470.03
2019-06-10T21:05:39.445Z,100472.83
2019-06-10T21:08:12.131Z,100465.45
2019-06-10T21:10:45.090Z,100455.64
2019-06-10T21:13:13.948Z,100456.38
2019-06-10T21:15:47.516Z,100453.89
2019-06-10T21:18:16.714Z,100456.83
2019-06-10T21:20:49.951Z,100462.11
2019-06-10T21:23:18.836Z,100454.89
2019-06-10T21:25:52.048Z,100446.87
2019-06-10T21:28:21.866Z,100452.61
2019-06-10T21:30:57.702Z,100451.77
2019-06-10T21:33:24.041Z,100454.67
2019-06-10T21:35:54.959Z,100453.80
2019-06-10T21:38:25.261Z,100459.56
2019-06-10T21:40:55.529Z,100456.48
2019-06-10T21:43:25.936Z,100445.05
2019-06-10T21:45:58.273Z,100435.58
2019-06-10T21:48:28.610Z,100423.14
2019-06-10T21:50:58.922Z,100415.15
2019-06-10T21:53:29.183Z,100416.59
2019-06-10T21:55:59.445Z,100428.80
2019-06-10T21:58:29.893Z,100426.80
2019-06-10T22:01:11.653Z,100431.78
2019-06-10T22:03:32.344Z,100421.98
2019-06-10T22:06:02.561Z,100424.14
2019-06-10T22:08:33.560Z,100424.27
2019-06-10T22:11:03.998Z,100423.53
2019-06-10T22:13:35.752Z,100422.57
2019-06-10T22:16:07.154Z,100417.80
2019-06-10T22:18:37.557Z,100419.56
2019-06-10T22:21:07.822Z,100424.55
2019-06-10T22:23:38.081Z,100429.02
2019-06-10T22:26:08.408Z,100447.72
2019-06-10T22:28:38.615Z,100448.32
2019-06-10T22:31:19.801Z,100451.95
2019-06-10T22:33:43.003Z,100458.44
2019-06-10T22:36:15.645Z,100459.41
2019-06-10T22:38:47.949Z,100457.59
2019-06-10T22:41:17.744Z,100466.30
2019-06-10T22:43:49.323Z,100465.12
2019-06-10T22:48:48.964Z,100466.41
2019-06-10T22:51:19.221Z,100479.49
2019-06-10T22:53:50.243Z,100482.96
2019-06-10T22:56:21.190Z,100478.92
2019-06-10T22:58:53.967Z,100489.86
2019-06-10T23:01:34.453Z,100500.25
2019-06-10T23:03:56.317Z,100511.42
2019-06-10T23:06:27.524Z,100513.83
2019-06-10T23:08:59.356Z,100527.47
2019-06-10T23:11:29.663Z,100527.41
2019-06-10T23:13:59.868Z,100532.17
2019-06-10T23:16:30.365Z,100527.53
2019-06-10T23:19:02.802Z,100524.15
2019-06-10T23:21:32.625Z,100523.54
2019-06-10T23:24:03.298Z,100529.20
2019-06-10T23:26:36.356Z,100529.09
2019-06-10T23:29:12.123Z,100524.20
2019-06-10T23:31:51.682Z,100520.95
2019-06-10T23:34:18.041Z,100506.74
2019-06-10T23:36:46.474Z,100510.78
2019-06-10T23:39:16.654Z,100511.64
2019-06-10T23:41:51.132Z,100514.55
2019-06-10T23:44:22.907Z,100510.40
2019-06-10T23:46:57.311Z,100513.31
2019-06-10T23:49:27.653Z,100510.86
2019-06-10T23:52:00.321Z,100525.13
2019-06-10T23:54:32.294Z,100515.20
2019-06-10T23:57:05.562Z,100509.79
2019-06-10T23:59:34.545Z,100504.97
